ADDS METAR Data INFO
IDs: Format: Raw Decoded Include TAF

Data at: 2031 UTC 16 Dec 2017

KFNL 161956Z AUTO 05009KT 10SM CLR 09/M09 A2981 RMK AO2 SLP083 T00941089
KFNL 161856Z AUTO 36006KT 10SM CLR 08/M09 A2984 RMK AO2 SLP100 T00831094
KFNL 161756Z AUTO 03008KT 10SM CLR 08/M09 A2987 RMK AO2 SLP106 T00781094 10078 20006 50018
KFNL 161656Z AUTO 02005KT 10SM CLR 05/M08 A2987 RMK AO2 SLP117 T00501078
KFNL 161556Z AUTO 00000KT 10SM CLR 01/M05 A2984 RMK AO2 SLP111 T00111050 FZRANO
KFNL 161456Z AUTO 01003KT 10SM FEW120 03/M07 A2980 RMK AO2 SLP088 T00331072 53014
KFNL 161356Z AUTO 03004KT 10SM CLR 02/M06 A2978 RMK AO2 SLP085 T00171061 FZRANO
KFNL 161256Z AUTO 06006KT 10SM CLR 02/M07 A2977 RMK AO2 SLP075 T00221072 FZRANO
KFNL 161156Z AUTO 00000KT 10SM CLR 01/M04 A2976 RMK AO2 SLP069 T00111044 10044 21011 58000 FZRANO
KFNL 161056Z AUTO 00000KT 10SM CLR 01/M06 A2977 RMK AO2 SLP066 T00111056 FZRANO
KFNL 160956Z AUTO 05003KT 10SM CLR 03/M06 A2976 RMK AO2 SLP056 T00331061
KFNL 160856Z AUTO 09004KT 10SM CLR 02/M06 A2976 RMK AO2 SLP061 T00171056 56010 FZRANO
KFNL 160756Z AUTO 00000KT 10SM CLR 03/M07 A2977 RMK AO2 SLP069 T00281072 TSNO
KFNL 160656Z AUTO 36006KT 10SM CLR 01/M06 A2978 RMK AO2 SLP081 T00061056 401441083 FZRANO
KFNL 160556Z AUTO 14003KT 10SM CLR 03/M07 A2979 RMK AO2 SLP087 T00331067 10089 20006 58013
KFNL 160456Z AUTO 19007KT 10SM CLR 01/M05 A2981 RMK AO2 SLP107 T00061050 FZRANO
KFNL 160356Z AUTO VRB05KT 10SM CLR 02/M06 A2983 RMK AO2 SLP114 T00221056 FZRANO
KFNL 160256Z AUTO 04005KT 10SM CLR 06/M07 A2984 RMK AO2 SLP120 T00561067 56008
KFNL 160156Z AUTO 36003KT 10SM CLR 05/M05 A2985 RMK AO2 SLP124 T00501050
KFNL 160056Z AUTO 05004KT 10SM CLR 07/M07 A2985 RMK AO2 SLP119 T00721067
KFNL 152356Z AUTO 33004KT 10SM CLR 08/M07 A2987 RMK AO2 SLP126 T00831067 10144 20039 58006
KFNL 152256Z AUTO 00000KT 10SM CLR 12/M07 A2987 RMK AO2 SLP121 T01221072
KFNL 152156Z AUTO 08004KT 10SM CLR 14/M06 A2989 RMK AO2 SLP121 T01391061
KFNL 152056Z AUTO 17003KT 10SM CLR 12/M05 A2989 RMK AO2 SLP122 T01221050 56034
KFNL 151956Z AUTO 19007KT 10SM CLR 09/M08 A2992 RMK AO2 SLP138 T00941078
KFNL 151856Z AUTO 16003KT 10SM CLR 07/M05 A2996 RMK AO2 SLP155 T00721050
KFNL 151756Z AUTO 00000KT 10SM CLR 04/M06 A3000 RMK AO2 SLP174 T00441056 10044 21083 58002 TSNO
KFNL 151656Z AUTO 03003KT 10SM CLR M01/M06 A3003 RMK AO2 SLP193 T10061056 FZRANO
KFNL 151556Z AUTO 00000KT 10SM CLR M03/M05 A3001 RMK AO2 SLP190 T10281050 FZRANO
KFNL 151456Z AUTO 16003KT 10SM CLR M07/M09 A3001 RMK AO2 SLP196 T10671089 56015 FZRANO
KFNL 151356Z AUTO 00000KT 10SM CLR M07/M09 A3002 RMK AO2 SLP196 T10671089 FZRANO
KFNL 151256Z AUTO 00000KT 10SM CLR M07/M09 A3004 RMK AO2 SLP203 T10671094 FZRANO
KFNL 151156Z AUTO 34004KT 10SM CLR M07/M10 A3006 RMK AO2 SLP210 T10721100 11039 21083 58019 FZRANO
KFNL 151056Z AUTO 36005KT 10SM CLR M08/M10 A3009 RMK AO2 SLP214 T10781100 FZRANO
KFNL 150956Z AUTO 04005KT 10SM CLR M07/M09 A3011 RMK AO2 SLP217 T10671094 FZRANO
KFNL 150856Z AUTO 35003KT 10SM CLR M06/M09 A3013 RMK AO2 SLP219 T10561089 56021 FZRANO